createdAt,value
2023-03-21T00:00:55.752Z,6.53
2023-03-21T00:03:24.152Z,5.78
2023-03-21T00:05:53.527Z,8.10
2023-03-21T00:08:22.274Z,9.07
2023-03-21T00:10:56.769Z,6.95
2023-03-21T00:13:26.492Z,6.03
2023-03-21T00:16:07.395Z,8.50
2023-03-21T00:18:42.599Z,4.43
2023-03-21T00:21:39.616Z,7.22
2023-03-21T00:24:03.711Z,6.25
2023-03-21T00:26:33.424Z,5.90
2023-03-21T00:29:01.713Z,8.40
2023-03-21T00:31:30.135Z,4.70
2023-03-21T00:33:58.688Z,5.30
2023-03-21T00:36:27.131Z,5.47
2023-03-21T00:38:55.571Z,4.38
2023-03-21T00:41:41.116Z,7.00
2023-03-21T00:44:13.490Z,4.95
2023-03-21T00:46:51.669Z,7.28
2023-03-21T00:49:25.917Z,5.72
2023-03-21T00:52:08.691Z,4.47
2023-03-21T00:54:43.275Z,9.85
2023-03-21T00:57:11.567Z,11.02
2023-03-21T00:59:41.250Z,4.07
2023-03-21T01:02:14.798Z,5.40
2023-03-21T01:04:43.433Z,5.95
2023-03-21T01:07:11.855Z,4.63
2023-03-21T01:09:40.364Z,7.18
2023-03-21T01:12:08.693Z,6.68
2023-03-21T01:14:38.680Z,7.55
2023-03-21T01:17:08.332Z,6.03
2023-03-21T01:19:51.265Z,7.50
2023-03-21T01:22:20.183Z,6.25
2023-03-21T01:25:03.077Z,4.93
2023-03-21T01:27:34.129Z,8.40
2023-03-21T01:30:02.644Z,8.55
2023-03-21T01:32:33.881Z,7.75
2023-03-21T01:35:02.153Z,7.90
2023-03-21T01:37:30.455Z,6.97
2023-03-21T01:39:58.745Z,5.30
2023-03-21T01:42:27.056Z,8.90
2023-03-21T01:44:57.671Z,6.35
2023-03-21T01:47:29.776Z,6.72
2023-03-21T01:50:09.739Z,6.57
2023-03-21T01:52:51.904Z,5.75
2023-03-21T01:55:45.292Z,5.82
2023-03-21T01:58:23.688Z,6.53
2023-03-21T02:01:04.666Z,5.18
2023-03-21T02:03:50.495Z,5.75
2023-03-21T02:06:32.531Z,5.53
2023-03-21T02:09:11.469Z,6.78
2023-03-21T02:11:40.606Z,6.28
2023-03-21T02:14:15.294Z,6.95
2023-03-21T02:17:01.468Z,7.78
2023-03-21T02:19:52.716Z,7.47
2023-03-21T02:22:38.011Z,7.50
2023-03-21T02:25:27.889Z,7.70
2023-03-21T02:28:01.802Z,6.75
2023-03-21T02:30:52.236Z,7.38
2023-03-21T02:33:37.603Z,6.95
2023-03-21T02:36:16.867Z,6.15
2023-03-21T02:38:49.727Z,9.40
2023-03-21T02:41:22.324Z,7.60
2023-03-21T02:43:56.125Z,8.77
2023-03-21T02:46:39.954Z,8.98
2023-03-21T02:49:14.448Z,6.95
2023-03-21T02:51:44.146Z,5.68
2023-03-21T02:54:34.994Z,7.22
2023-03-21T02:57:04.507Z,10.02
2023-03-21T02:59:35.810Z,10.40
2023-03-21T03:02:06.949Z,12.13
2023-03-21T03:04:35.478Z,8.10
2023-03-21T03:07:13.509Z,10.65
2023-03-21T03:09:51.477Z,9.60
2023-03-21T03:12:25.219Z,7.57
2023-03-21T03:15:03.513Z,8.13
2023-03-21T03:17:40.965Z,11.77
2023-03-21T03:20:19.470Z,8.48
2023-03-21T03:22:51.607Z,12.63
2023-03-21T03:25:36.014Z,6.38
2023-03-21T03:28:10.635Z,8.55
2023-03-21T03:30:44.952Z,7.45
2023-03-21T03:33:23.368Z,9.18
2023-03-21T03:36:04.368Z,9.63
2023-03-21T03:38:34.328Z,8.77
2023-03-21T03:41:07.438Z,7.78
2023-03-21T03:43:46.858Z,9.57
2023-03-21T03:46:18.121Z,10.77
2023-03-21T03:48:50.769Z,9.43
2023-03-21T03:51:22.835Z,7.65
2023-03-21T03:54:09.455Z,9.30
2023-03-21T03:56:39.591Z,6.60
2023-03-21T03:59:08.282Z,10.90
2023-03-21T04:01:59.490Z,7.97
2023-03-21T04:04:29.051Z,9.65
2023-03-21T04:06:59.859Z,12.02
2023-03-21T04:09:43.219Z,9.18
2023-03-21T04:12:15.310Z,9.15
2023-03-21T04:14:56.955Z,7.57
2023-03-21T04:17:30.221Z,7.43
2023-03-21T04:20:10.847Z,10.70
2023-03-21T04:22:41.322Z,9.10
2023-03-21T04:25:09.947Z,7.85
2023-03-21T04:27:40.040Z,7.50
2023-03-21T04:30:34.098Z,11.00
2023-03-21T04:33:10.754Z,8.73
2023-03-21T04:35:42.569Z,9.48
2023-03-21T04:38:11.169Z,12.07
2023-03-21T04:40:40.433Z,8.40
2023-03-21T04:43:10.313Z,7.22
2023-03-21T04:45:41.169Z,9.23
2023-03-21T04:48:10.325Z,8.82
2023-03-21T04:50:38.810Z,16.48
2023-03-21T04:53:07.186Z,8.35
2023-03-21T04:55:37.125Z,10.30
2023-03-21T04:58:06.307Z,11.80
2023-03-21T05:00:38.277Z,13.40
2023-03-21T05:03:08.979Z,6.45
2023-03-21T05:05:38.162Z,9.40
2023-03-21T05:08:07.038Z,6.68
2023-03-21T05:10:35.404Z,10.90
2023-03-21T05:13:03.870Z,10.95
2023-03-21T05:15:35.915Z,9.75
2023-03-21T05:18:11.336Z,11.25
2023-03-21T05:20:53.494Z,8.82
2023-03-21T05:23:21.885Z,11.30
2023-03-21T05:25:50.223Z,9.55
2023-03-21T05:28:31.794Z,10.70
2023-03-21T05:31:03.715Z,9.35
2023-03-21T05:33:32.281Z,13.65
2023-03-21T05:36:01.012Z,9.07
2023-03-21T05:38:32.641Z,12.52
2023-03-21T05:41:01.188Z,11.10
2023-03-21T05:43:29.580Z,11.77
2023-03-21T05:45:58.117Z,11.45
2023-03-21T05:48:31.468Z,10.32
2023-03-21T05:51:14.520Z,8.48
2023-03-21T05:53:43.044Z,7.72
2023-03-21T05:56:12.267Z,8.43
2023-03-21T05:58:50.397Z,11.77
2023-03-21T06:01:19.344Z,12.93
2023-03-21T06:03:57.308Z,11.88
2023-03-21T06:06:28.571Z,9.70
2023-03-21T06:08:59.979Z,10.20
2023-03-21T06:11:30.975Z,10.32
2023-03-21T06:14:16.252Z,9.00
2023-03-21T06:16:46.207Z,9.40
2023-03-21T06:19:16.170Z,7.90
2023-03-21T06:21:57.115Z,8.27
2023-03-21T06:24:26.505Z,9.63
2023-03-21T06:26:55.963Z,8.55
2023-03-21T06:29:25.356Z,13.20
2023-03-21T06:31:53.706Z,8.07
2023-03-21T06:34:23.577Z,10.55
2023-03-21T06:36:54.621Z,9.10
2023-03-21T06:39:28.781Z,10.00
2023-03-21T06:41:57.624Z,10.40
2023-03-21T06:44:26.427Z,8.02
2023-03-21T06:47:01.264Z,10.00
2023-03-21T06:49:31.315Z,12.48
2023-03-21T06:52:07.363Z,9.23
2023-03-21T06:54:36.314Z,9.10
2023-03-21T06:57:11.817Z,9.40
2023-03-21T06:59:42.488Z,9.02
2023-03-21T07:02:15.835Z,8.63
2023-03-21T07:04:53.867Z,10.35
2023-03-21T07:07:27.050Z,11.73
2023-03-21T07:09:55.443Z,12.02
2023-03-21T07:12:24.604Z,8.48
2023-03-21T07:15:12.775Z,8.05
2023-03-21T07:17:42.952Z,11.38
2023-03-21T07:20:14.050Z,8.25
2023-03-21T07:22:42.414Z,8.70
2023-03-21T07:25:11.751Z,10.52
2023-03-21T07:27:42.203Z,10.48
2023-03-21T07:30:11.353Z,9.25
2023-03-21T07:32:39.764Z,11.65
2023-03-21T07:35:08.588Z,12.35
2023-03-21T07:37:38.523Z,8.65
2023-03-21T07:40:10.438Z,8.65
2023-03-21T07:42:39.735Z,8.23
2023-03-21T07:45:09.755Z,10.35
2023-03-21T07:47:38.186Z,10.80
2023-03-21T07:50:06.944Z,10.93
2023-03-21T07:52:35.247Z,7.63
2023-03-21T07:55:05.164Z,9.75
2023-03-21T07:57:33.432Z,12.85
2023-03-21T08:00:01.727Z,10.63
2023-03-21T08:02:30.100Z,10.10
2023-03-21T08:04:58.586Z,10.73
2023-03-21T08:07:28.001Z,11.68
2023-03-21T08:09:56.342Z,7.03
2023-03-21T08:16:35.541Z,9.82
2023-03-21T08:19:04.113Z,11.05
2023-03-21T08:21:32.420Z,10.82
2023-03-21T08:24:00.712Z,10.00
2023-03-21T08:26:28.965Z,9.38
2023-03-21T08:28:57.264Z,10.25
2023-03-21T08:31:25.720Z,9.52
2023-03-21T08:33:55.974Z,9.65
2023-03-21T08:36:24.460Z,10.35
2023-03-21T08:38:56.785Z,11.45
2023-03-21T08:41:25.930Z,10.07
2023-03-21T08:43:54.221Z,9.48
2023-03-21T08:46:22.570Z,11.35
2023-03-21T08:48:51.012Z,10.35
2023-03-21T08:51:20.773Z,15.32
2023-03-21T08:53:50.916Z,9.50
2023-03-21T08:56:19.264Z,11.20
2023-03-21T08:58:47.506Z,8.50
2023-03-21T09:01:17.374Z,10.95
2023-03-21T09:03:46.697Z,8.10
2023-03-21T09:06:18.568Z,8.88
2023-03-21T09:08:52.643Z,10.25
2023-03-21T09:11:21.215Z,9.35
2023-03-21T09:13:49.476Z,10.15
2023-03-21T09:16:18.157Z,10.43
2023-03-21T09:18:48.602Z,12.48
2023-03-21T09:21:18.445Z,9.05
2023-03-21T09:23:48.469Z,10.75
2023-03-21T09:26:18.442Z,8.50
2023-03-21T09:28:47.331Z,11.27
2023-03-21T09:31:22.570Z,11.55
2023-03-21T09:33:51.072Z,8.23
2023-03-21T09:36:20.857Z,11.82
2023-03-21T09:38:50.860Z,11.75
2023-03-21T09:41:28.547Z,12.95
2023-03-21T09:44:02.480Z,9.95
2023-03-21T09:46:35.596Z,10.70
2023-03-21T09:49:09.748Z,9.20
2023-03-21T09:51:41.165Z,11.80
2023-03-21T09:54:13.729Z,11.70
2023-03-21T09:56:44.552Z,11.27
2023-03-21T09:59:16.043Z,14.55
2023-03-21T10:01:48.380Z,10.32
2023-03-21T10:04:22.270Z,10.95
2023-03-21T10:06:57.282Z,10.38
2023-03-21T10:09:25.845Z,11.93
2023-03-21T10:11:57.493Z,8.60
2023-03-21T10:14:29.509Z,12.27
2023-03-21T10:16:59.055Z,11.90
2023-03-21T10:19:28.788Z,11.52
2023-03-21T10:22:01.236Z,9.50
2023-03-21T10:24:31.787Z,12.77
2023-03-21T10:27:02.822Z,10.20
2023-03-21T10:29:33.809Z,9.35
2023-03-21T10:32:02.265Z,12.18
2023-03-21T10:34:33.340Z,10.23
2023-03-21T10:37:02.315Z,10.68
2023-03-21T10:39:33.733Z,9.05
2023-03-21T10:42:03.483Z,9.73
2023-03-21T10:44:32.856Z,11.50
2023-03-21T10:47:05.723Z,11.82
2023-03-21T10:49:40.598Z,13.93
2023-03-21T10:52:13.230Z,15.48
2023-03-21T10:54:42.443Z,11.80
2023-03-21T10:57:13.468Z,14.20
2023-03-21T10:59:45.159Z,12.82
2023-03-21T11:02:19.336Z,10.18
2023-03-21T11:04:48.315Z,15.60
2023-03-21T11:07:19.144Z,18.95
2023-03-21T11:09:50.020Z,10.50
2023-03-21T11:12:29.570Z,10.73
2023-03-21T11:14:57.910Z,12.13
2023-03-21T11:17:29.035Z,9.95
2023-03-21T11:19:59.457Z,13.55
2023-03-21T11:22:30.769Z,11.65
2023-03-21T11:25:00.934Z,12.63
2023-03-21T11:27:31.361Z,15.77
2023-03-21T11:30:01.578Z,12.25
2023-03-21T11:32:32.928Z,10.13
2023-03-21T11:35:02.428Z,13.15
2023-03-21T11:37:33.488Z,10.95
2023-03-21T11:40:07.902Z,13.05
2023-03-21T11:42:42.917Z,14.05
2023-03-21T11:45:16.278Z,13.90
2023-03-21T11:47:45.758Z,14.35
2023-03-21T11:50:18.629Z,13.77
2023-03-21T11:52:52.547Z,12.15
2023-03-21T11:55:26.451Z,13.82
2023-03-21T11:58:13.415Z,13.55
2023-03-21T12:00:49.591Z,14.00
2023-03-21T12:03:47.521Z,13.05
2023-03-21T12:06:21.156Z,14.02
2023-03-21T12:08:53.281Z,13.98
2023-03-21T12:11:27.371Z,14.75
2023-03-21T12:14:04.154Z,12.70
2023-03-21T12:16:41.279Z,10.05
2023-03-21T12:19:14.618Z,9.85
2023-03-21T12:21:48.137Z,9.50
2023-03-21T12:24:20.233Z,8.55
2023-03-21T12:26:54.037Z,13.02
2023-03-21T12:29:30.797Z,11.38
2023-03-21T12:32:06.252Z,9.10
2023-03-21T12:34:46.850Z,7.90
2023-03-21T12:37:19.115Z,8.70
2023-03-21T12:39:48.735Z,10.93
2023-03-21T12:42:31.934Z,9.90
2023-03-21T12:45:11.530Z,8.48
2023-03-21T12:47:44.528Z,7.22
2023-03-21T12:50:15.947Z,8.55
2023-03-21T12:52:46.260Z,6.88
2023-03-21T12:55:18.510Z,5.72
2023-03-21T12:57:57.032Z,6.75
2023-03-21T13:00:30.446Z,6.90
2023-03-21T13:03:03.699Z,8.23
2023-03-21T13:05:37.528Z,8.55
2023-03-21T13:08:08.312Z,5.40
2023-03-21T13:10:37.129Z,8.32
2023-03-21T13:13:13.535Z,8.50
2023-03-21T13:15:50.713Z,7.68
2023-03-21T13:18:24.972Z,10.20
2023-03-21T13:20:55.154Z,7.55
2023-03-21T13:23:23.979Z,8.55
2023-03-21T13:25:54.106Z,10.23
2023-03-21T13:28:23.487Z,10.88
2023-03-21T13:30:53.159Z,8.23
2023-03-21T13:33:27.393Z,7.85
2023-03-21T13:36:05.220Z,8.25
2023-03-21T13:38:34.614Z,8.80
2023-03-21T13:41:05.252Z,9.98
2023-03-21T13:43:35.791Z,10.23
2023-03-21T13:46:13.535Z,10.88
2023-03-21T13:48:57.851Z,7.78
2023-03-21T13:51:40.223Z,8.48
2023-03-21T13:54:18.555Z,7.72
2023-03-21T13:56:51.824Z,8.32
2023-03-21T13:59:21.262Z,7.55
2023-03-21T14:02:09.463Z,9.85
2023-03-21T14:04:43.173Z,11.27
2023-03-21T14:07:23.211Z,10.32
2023-03-21T14:09:53.621Z,7.57
2023-03-21T14:12:24.904Z,9.15
2023-03-21T14:14:55.206Z,6.28
2023-03-21T14:17:27.430Z,9.43
2023-03-21T14:19:56.661Z,8.63
2023-03-21T14:22:25.085Z,9.45
2023-03-21T14:24:57.048Z,9.18
2023-03-21T14:27:27.598Z,9.60
2023-03-21T14:29:56.965Z,6.15
2023-03-21T14:32:27.564Z,7.63
2023-03-21T14:34:56.396Z,11.20
2023-03-21T14:37:29.344Z,11.82
2023-03-21T14:40:01.793Z,6.43
2023-03-21T14:42:30.566Z,9.88
2023-03-21T14:45:00.554Z,8.75
2023-03-21T14:47:32.093Z,6.55
2023-03-21T14:50:04.091Z,10.45
2023-03-21T14:52:33.424Z,8.98
2023-03-21T14:55:03.348Z,10.75
2023-03-21T14:57:35.475Z,11.65
2023-03-21T15:00:12.451Z,10.30
2023-03-21T15:02:43.343Z,9.30
2023-03-21T15:05:13.589Z,13.55
2023-03-21T15:07:42.084Z,10.18
2023-03-21T15:10:17.233Z,12.45
2023-03-21T15:12:52.392Z,10.77
2023-03-21T15:15:23.889Z,13.80
2023-03-21T15:17:56.651Z,15.45
2023-03-21T15:20:27.557Z,10.50
2023-03-21T15:22:57.075Z,17.48
2023-03-21T15:25:27.975Z,14.27
2023-03-21T15:27:56.934Z,7.50
2023-03-21T15:30:28.114Z,8.43
2023-03-21T15:32:59.254Z,8.43
2023-03-21T15:35:34.014Z,7.78
2023-03-21T15:38:04.601Z,10.90
2023-03-21T15:40:35.382Z,8.23
2023-03-21T15:43:08.562Z,9.07
2023-03-21T15:45:47.997Z,8.77
2023-03-21T15:48:18.474Z,8.75
2023-03-21T15:50:50.913Z,10.52
2023-03-21T15:53:20.621Z,11.88
2023-03-21T15:55:52.164Z,11.50
2023-03-21T15:58:22.152Z,13.57
2023-03-21T16:00:54.747Z,10.32
2023-03-21T16:03:28.350Z,11.27
2023-03-21T16:06:10.757Z,9.10
2023-03-21T16:08:46.177Z,12.30
2023-03-21T16:11:17.755Z,9.65
2023-03-21T16:13:46.615Z,12.10
2023-03-21T16:16:17.708Z,12.02
2023-03-21T16:18:47.658Z,12.57
2023-03-21T16:21:17.419Z,9.48
2023-03-21T16:23:45.981Z,11.18
2023-03-21T16:26:16.421Z,15.27
2023-03-21T16:28:45.511Z,12.48
2023-03-21T16:31:15.641Z,11.48
2023-03-21T16:33:44.868Z,11.80
2023-03-21T16:36:17.861Z,10.07
2023-03-21T16:38:47.407Z,12.10
2023-03-21T16:41:16.030Z,12.40
2023-03-21T16:43:45.125Z,11.10
2023-03-21T16:46:14.819Z,13.32
2023-03-21T16:48:52.438Z,13.60
2023-03-21T16:51:25.782Z,14.13
2023-03-21T16:53:54.601Z,10.70
2023-03-21T16:56:24.639Z,15.27
2023-03-21T16:58:53.602Z,12.98
2023-03-21T17:01:25.900Z,14.38
2023-03-21T17:03:55.480Z,14.18
2023-03-21T17:06:26.383Z,19.48
2023-03-21T17:08:55.250Z,12.65
2023-03-21T17:11:25.484Z,20.77
2023-03-21T17:13:55.539Z,16.70
2023-03-21T17:16:26.862Z,14.38
2023-03-21T17:18:55.809Z,14.38
2023-03-21T17:21:26.412Z,13.82
2023-03-21T17:23:55.345Z,14.85
2023-03-21T17:26:24.981Z,12.32
2023-03-21T17:28:55.372Z,14.57
2023-03-21T17:31:24.771Z,18.05
2023-03-21T17:33:53.387Z,16.17
2023-03-21T17:36:22.899Z,13.27
2023-03-21T17:38:53.781Z,15.82
2023-03-21T17:41:23.291Z,15.13
2023-03-21T17:43:52.210Z,13.70
2023-03-21T17:46:22.275Z,13.98
2023-03-21T17:48:51.273Z,13.23
2023-03-21T17:51:19.932Z,12.80
2023-03-21T17:53:50.683Z,13.32
2023-03-21T17:56:26.695Z,14.95
2023-03-21T17:58:56.439Z,23.77
2023-03-21T18:01:33.832Z,17.55
2023-03-21T18:04:11.262Z,17.23
2023-03-21T18:06:42.897Z,16.40
2023-03-21T18:09:12.620Z,18.67
2023-03-21T18:11:42.577Z,17.02
2023-03-21T18:14:19.495Z,19.52
2023-03-21T18:16:54.162Z,15.63
2023-03-21T18:19:23.113Z,17.35
